createdAt,value
2023-05-20T00:01:51.968Z,1.20
2023-05-20T00:04:18.956Z,1.40
2023-05-20T00:06:45.756Z,1.40
2023-05-20T00:09:12.519Z,1.10
2023-05-20T00:11:39.289Z,1.47
2023-05-20T00:14:06.297Z,1.23
2023-05-20T00:16:33.138Z,1.43
2023-05-20T00:19:00.005Z,1.77
2023-05-20T00:21:26.846Z,1.13
2023-05-20T00:23:53.621Z,1.60
2023-05-20T00:26:21.395Z,1.23
2023-05-20T00:28:52.319Z,1.27
2023-05-20T00:31:19.014Z,1.40
2023-05-20T00:33:45.727Z,1.27
2023-05-20T00:36:12.431Z,1.70
2023-05-20T00:38:39.135Z,1.93
2023-05-20T00:41:05.957Z,1.40
2023-05-20T00:43:32.660Z,1.83
2023-05-20T00:46:00.441Z,1.40
2023-05-20T00:48:35.261Z,1.40
2023-05-20T00:51:03.089Z,1.40
2023-05-20T00:53:29.847Z,1.70
2023-05-20T00:55:56.824Z,1.47
2023-05-20T00:58:23.662Z,1.10
2023-05-20T01:00:50.700Z,1.33
2023-05-20T01:03:18.210Z,1.60
2023-05-20T01:05:44.957Z,1.37
2023-05-20T01:08:11.713Z,1.50
2023-05-20T01:10:42.718Z,1.33
2023-05-20T01:13:15.375Z,1.90
2023-05-20T01:15:46.478Z,1.43
2023-05-20T01:18:18.465Z,1.43
2023-05-20T01:20:49.553Z,1.20
2023-05-20T01:23:17.205Z,1.47
2023-05-20T01:25:43.941Z,1.50
2023-05-20T01:28:18.169Z,1.70
2023-05-20T01:30:52.347Z,1.57
2023-05-20T01:33:23.476Z,1.63
2023-05-20T01:35:51.187Z,1.43
2023-05-20T01:38:19.211Z,1.80
2023-05-20T01:40:47.603Z,1.40
2023-05-20T01:43:16.798Z,1.10
2023-05-20T01:45:45.040Z,1.50
2023-05-20T01:48:12.587Z,1.27
2023-05-20T01:50:40.031Z,1.50
2023-05-20T01:53:09.516Z,1.37
2023-05-20T01:55:36.478Z,1.80
2023-05-20T01:58:03.539Z,1.33
2023-05-20T02:00:31.694Z,1.70
2023-05-20T02:02:59.565Z,1.50
2023-05-20T02:05:26.401Z,1.80
2023-05-20T02:07:53.166Z,1.50
2023-05-20T02:10:20.958Z,1.70
2023-05-20T02:12:49.235Z,1.70
2023-05-20T02:15:16.213Z,1.53
2023-05-20T02:17:43.762Z,1.40
2023-05-20T02:20:11.654Z,1.80
2023-05-20T02:22:38.511Z,1.67
2023-05-20T02:25:05.814Z,1.40
2023-05-20T02:27:32.580Z,1.57
2023-05-20T02:30:00.220Z,1.50
2023-05-20T02:32:28.760Z,1.60
2023-05-20T02:34:55.933Z,1.77
2023-05-20T02:37:22.772Z,1.60
2023-05-20T02:39:50.001Z,1.50
2023-05-20T02:42:16.701Z,1.73
2023-05-20T02:44:43.691Z,1.70
2023-05-20T02:47:10.826Z,1.67
2023-05-20T02:49:37.542Z,1.57
2023-05-20T02:52:05.015Z,1.40
2023-05-20T02:54:31.750Z,1.80
2023-05-20T02:56:58.593Z,1.70
2023-05-20T02:59:25.660Z,1.67
2023-05-20T03:01:52.533Z,1.77
2023-05-20T03:04:21.588Z,1.50
2023-05-20T03:06:48.407Z,2.23
2023-05-20T03:09:15.941Z,1.53
2023-05-20T03:11:42.797Z,1.70
2023-05-20T03:14:09.580Z,2.03
2023-05-20T03:16:36.428Z,1.60
2023-05-20T03:19:03.299Z,1.57
2023-05-20T03:21:30.284Z,1.60
2023-05-20T03:23:57.534Z,1.37
2023-05-20T03:26:25.575Z,1.67
2023-05-20T03:28:52.342Z,1.77
2023-05-20T03:31:19.373Z,1.83
2023-05-20T03:33:46.281Z,1.90
2023-05-20T03:36:13.155Z,1.80
2023-05-20T03:38:39.861Z,1.70
2023-05-20T03:41:06.740Z,1.53
2023-05-20T03:43:34.017Z,1.70
2023-05-20T03:46:01.033Z,2.10
2023-05-20T03:48:28.795Z,1.50
2023-05-20T03:50:55.539Z,1.70
2023-05-20T03:53:22.489Z,1.67
2023-05-20T03:55:49.192Z,1.80
2023-05-20T03:58:16.567Z,1.70
2023-05-20T04:00:43.719Z,2.03
2023-05-20T04:03:11.544Z,4.70
2023-05-20T04:05:39.491Z,2.17
2023-05-20T04:08:14.722Z,2.73
2023-05-20T04:10:45.256Z,1.43
2023-05-20T04:13:12.144Z,2.03
2023-05-20T04:15:39.268Z,1.43
2023-05-20T04:18:06.376Z,1.43
2023-05-20T04:20:33.164Z,1.90
2023-05-20T04:23:00.802Z,1.80
2023-05-20T04:25:27.655Z,2.00
2023-05-20T04:27:54.816Z,1.80
2023-05-20T04:30:22.022Z,1.60
2023-05-20T04:32:50.807Z,1.63
2023-05-20T04:35:18.270Z,1.90
2023-05-20T04:37:49.428Z,1.80
2023-05-20T04:40:17.130Z,1.87
2023-05-20T04:42:44.804Z,2.03
2023-05-20T04:45:12.389Z,1.60
2023-05-20T04:47:40.262Z,1.80
2023-05-20T04:50:10.779Z,1.90
2023-05-20T04:52:39.038Z,1.87
2023-05-20T04:55:10.333Z,2.03
2023-05-20T04:57:40.104Z,1.90
2023-05-20T05:00:10.363Z,1.80
2023-05-20T05:02:37.480Z,1.93
2023-05-20T05:05:04.823Z,2.17
2023-05-20T05:07:32.059Z,1.63
2023-05-20T05:09:58.850Z,1.70
2023-05-20T05:12:27.085Z,1.80
2023-05-20T05:14:53.948Z,1.60
2023-05-20T05:17:21.001Z,2.20
2023-05-20T05:19:47.716Z,2.03
2023-05-20T05:22:14.413Z,1.93
2023-05-20T05:24:41.323Z,1.80
2023-05-20T05:27:08.061Z,1.80
2023-05-20T05:29:34.832Z,2.10
2023-05-20T05:32:01.677Z,2.23
2023-05-20T05:34:28.511Z,1.90
2023-05-20T05:36:55.253Z,2.00
2023-05-20T05:39:22.180Z,1.70
2023-05-20T05:41:48.954Z,2.00
2023-05-20T05:44:16.083Z,1.93
2023-05-20T05:46:43.141Z,2.10
2023-05-20T05:49:10.828Z,2.00
2023-05-20T05:51:39.024Z,1.70
2023-05-20T05:54:06.039Z,2.00
2023-05-20T05:56:32.880Z,2.70
2023-05-20T05:58:59.664Z,2.00
2023-05-20T06:01:27.138Z,2.50
2023-05-20T06:03:54.248Z,2.00
2023-05-20T06:06:21.516Z,1.97
2023-05-20T06:08:48.465Z,1.90
2023-05-20T06:11:16.337Z,2.10
2023-05-20T06:13:43.199Z,2.10
2023-05-20T06:16:09.991Z,2.13
2023-05-20T06:18:36.734Z,2.60
2023-05-20T06:21:05.565Z,3.00
2023-05-20T06:23:32.390Z,2.10
2023-05-20T06:26:03.558Z,2.40
2023-05-20T06:28:31.064Z,2.70
2023-05-20T06:30:58.051Z,2.67
2023-05-20T06:33:28.404Z,2.60
2023-05-20T06:36:01.591Z,2.63
2023-05-20T06:38:28.784Z,2.17
2023-05-20T06:40:55.700Z,2.43
2023-05-20T06:43:22.481Z,2.73
2023-05-20T06:46:15.374Z,2.63
2023-05-20T06:48:47.551Z,3.00
2023-05-20T06:51:14.380Z,3.50
2023-05-20T06:53:41.217Z,2.97
2023-05-20T06:56:08.009Z,2.80
2023-05-20T06:58:34.688Z,2.90
2023-05-20T07:01:01.390Z,2.43
2023-05-20T07:03:28.130Z,3.10
2023-05-20T07:05:54.824Z,2.53
2023-05-20T07:08:21.642Z,2.90
2023-05-20T07:10:48.657Z,2.63
2023-05-20T07:13:18.997Z,2.50
2023-05-20T07:15:48.907Z,2.57
2023-05-20T07:18:16.802Z,2.73
2023-05-20T07:20:47.280Z,2.57
2023-05-20T07:23:29.791Z,2.60
2023-05-20T07:25:57.379Z,2.93
2023-05-20T07:28:24.412Z,3.07
2023-05-20T07:30:51.369Z,2.30
2023-05-20T07:33:24.865Z,2.90
2023-05-20T07:35:54.437Z,3.10
2023-05-20T07:38:22.133Z,2.73
2023-05-20T07:40:55.665Z,2.97
2023-05-20T07:43:22.499Z,2.93
2023-05-20T07:45:49.315Z,2.90
2023-05-20T07:48:16.424Z,3.10
2023-05-20T07:50:43.181Z,3.37
2023-05-20T07:53:11.191Z,3.30
2023-05-20T07:55:38.513Z,2.90
2023-05-20T07:58:06.457Z,3.20
2023-05-20T08:00:34.880Z,3.33
2023-05-20T08:03:04.782Z,3.00
2023-05-20T08:05:42.319Z,3.23
2023-05-20T08:08:10.456Z,3.47
2023-05-20T08:10:49.015Z,3.30
2023-05-20T08:13:15.816Z,2.60
2023-05-20T08:15:42.743Z,3.07
2023-05-20T08:18:09.837Z,3.00
2023-05-20T08:20:37.212Z,3.50
2023-05-20T08:23:03.950Z,3.60
2023-05-20T08:25:30.674Z,3.50
2023-05-20T08:27:57.801Z,3.37
2023-05-20T08:30:25.616Z,3.83
2023-05-20T08:32:54.055Z,3.60
2023-05-20T08:35:22.485Z,3.40
2023-05-20T08:37:51.360Z,3.30
2023-05-20T08:40:18.213Z,3.17
2023-05-20T08:42:45.176Z,3.40
2023-05-20T08:45:17.153Z,3.50
2023-05-20T08:47:44.415Z,4.27
2023-05-20T08:50:12.400Z,3.30
2023-05-20T08:52:46.916Z,3.33
2023-05-20T08:55:24.732Z,3.77
2023-05-20T08:57:51.927Z,3.77
2023-05-20T09:00:20.267Z,3.80
2023-05-20T09:02:47.407Z,3.53
2023-05-20T09:05:14.568Z,4.00
2023-05-20T09:07:43.170Z,3.47
2023-05-20T09:10:10.749Z,3.50
2023-05-20T09:12:38.595Z,4.27
2023-05-20T09:15:06.386Z,3.80
2023-05-20T09:17:36.880Z,4.30
2023-05-20T09:20:10.928Z,4.03
2023-05-20T09:22:39.310Z,3.60
2023-05-20T09:25:06.577Z,3.40
2023-05-20T09:27:33.978Z,3.70
2023-05-20T09:30:00.738Z,4.10
2023-05-20T09:32:28.901Z,3.17
2023-05-20T09:34:55.733Z,4.10
2023-05-20T09:37:24.456Z,4.40
2023-05-20T09:39:57.971Z,3.80
2023-05-20T09:42:28.992Z,4.10
2023-05-20T09:44:58.826Z,3.70
2023-05-20T09:47:26.642Z,3.23
2023-05-20T09:49:53.795Z,3.27
2023-05-20T09:52:21.589Z,4.07
2023-05-20T09:54:49.509Z,3.83
2023-05-20T09:57:16.510Z,3.37
2023-05-20T09:59:45.593Z,3.60
2023-05-20T10:02:12.716Z,4.30
2023-05-20T10:04:46.379Z,4.00
2023-05-20T10:07:42.128Z,3.80
2023-05-20T10:10:19.838Z,3.10
2023-05-20T10:13:04.581Z,3.90
2023-05-20T10:15:45.535Z,3.73
2023-05-20T10:18:33.138Z,3.77
2023-05-20T10:20:59.958Z,3.93
2023-05-20T10:23:31.555Z,4.17
2023-05-20T10:25:59.196Z,3.87
2023-05-20T10:28:36.432Z,3.67
2023-05-20T10:31:14.662Z,4.13
2023-05-20T10:33:43.809Z,4.13
2023-05-20T10:36:11.222Z,3.47
2023-05-20T10:38:38.111Z,4.07
2023-05-20T10:41:13.917Z,3.93
2023-05-20T10:43:40.680Z,3.43
2023-05-20T10:46:30.493Z,4.47
2023-05-20T10:49:03.645Z,4.23
2023-05-20T10:51:32.245Z,3.43
2023-05-20T10:53:59.207Z,3.60
2023-05-20T10:56:26.957Z,3.37
2023-05-20T10:58:54.710Z,3.30
2023-05-20T11:01:26.877Z,3.47
2023-05-20T11:03:57.804Z,3.77
2023-05-20T11:06:28.490Z,3.77
2023-05-20T11:08:56.194Z,3.93
2023-05-20T11:11:23.876Z,3.77
2023-05-20T11:13:52.151Z,3.97
2023-05-20T11:16:21.265Z,3.77
2023-05-20T11:18:49.869Z,4.27
2023-05-20T11:21:16.800Z,3.60
2023-05-20T11:23:43.546Z,3.53
2023-05-20T11:26:11.096Z,4.37
2023-05-20T11:28:38.112Z,3.97
2023-05-20T11:31:05.147Z,7.13
2023-05-20T11:33:31.823Z,4.37
2023-05-20T11:35:58.632Z,3.83
2023-05-20T11:38:25.314Z,3.73
2023-05-20T11:40:54.117Z,4.10
2023-05-20T11:43:23.997Z,3.53
2023-05-20T11:45:56.064Z,4.00
2023-05-20T11:48:23.928Z,5.00
2023-05-20T11:50:50.755Z,4.30
2023-05-20T11:53:22.519Z,4.07
2023-05-20T11:55:56.951Z,4.40
2023-05-20T11:58:25.991Z,4.47
2023-05-20T12:01:01.876Z,4.23
2023-05-20T12:03:32.921Z,4.23
2023-05-20T12:06:02.434Z,4.00
2023-05-20T12:08:29.192Z,3.47
2023-05-20T12:10:56.135Z,4.47
2023-05-20T12:13:23.750Z,4.33
2023-05-20T12:15:50.571Z,4.77
2023-05-20T12:18:17.319Z,4.60
2023-05-20T12:20:44.091Z,4.07
2023-05-20T12:23:11.128Z,4.20
2023-05-20T12:25:37.845Z,4.00
2023-05-20T12:28:04.697Z,4.00
2023-05-20T12:30:31.508Z,5.10
2023-05-20T12:32:58.274Z,4.30
2023-05-20T12:35:36.183Z,5.50
2023-05-20T12:38:03.143Z,4.00
2023-05-20T12:40:29.907Z,4.20
2023-05-20T12:42:56.615Z,4.73
2023-05-20T12:45:23.316Z,4.60
2023-05-20T12:47:51.233Z,4.73
2023-05-20T12:50:18.099Z,4.07
2023-05-20T12:52:45.262Z,4.10
2023-05-20T12:55:15.537Z,4.00
2023-05-20T12:57:44.522Z,3.70
2023-05-20T13:00:12.615Z,4.27
2023-05-20T13:02:41.731Z,4.90
2023-05-20T13:05:10.383Z,4.23
2023-05-20T13:07:37.365Z,3.80
2023-05-20T13:10:04.555Z,4.67
2023-05-20T13:12:31.253Z,4.30
2023-05-20T13:14:57.990Z,4.27
2023-05-20T13:17:24.771Z,4.20
2023-05-20T13:19:51.788Z,4.27
2023-05-20T13:22:18.612Z,4.97
2023-05-20T13:24:45.362Z,4.97
2023-05-20T13:27:12.036Z,4.43
2023-05-20T13:29:38.865Z,4.67
2023-05-20T13:32:05.767Z,4.37
2023-05-20T13:34:32.592Z,4.80
2023-05-20T13:36:59.268Z,3.93
2023-05-20T13:39:26.030Z,4.27
2023-05-20T13:41:54.871Z,4.70
2023-05-20T13:44:21.809Z,5.07
2023-05-20T13:46:48.619Z,4.63
2023-05-20T13:49:15.464Z,5.63
2023-05-20T13:51:42.191Z,5.67
2023-05-20T13:54:08.924Z,5.10
2023-05-20T13:56:35.759Z,5.17
2023-05-20T13:59:02.604Z,4.53
2023-05-20T14:01:33.159Z,4.63
2023-05-20T14:03:59.975Z,4.53
2023-05-20T14:06:27.442Z,4.60
2023-05-20T14:08:57.273Z,5.10
2023-05-20T14:11:24.015Z,7.77
2023-05-20T14:13:50.708Z,4.40
2023-05-20T14:16:17.516Z,4.87
2023-05-20T14:18:44.359Z,4.93
2023-05-20T14:21:11.923Z,4.60
2023-05-20T14:23:41.032Z,5.00
2023-05-20T14:26:07.798Z,4.80
2023-05-20T14:28:34.587Z,4.70
2023-05-20T14:31:01.425Z,4.70
2023-05-20T14:33:28.195Z,4.87
2023-05-20T14:35:55.036Z,4.07
2023-05-20T14:38:22.499Z,4.80
2023-05-20T14:40:49.240Z,5.17
2023-05-20T14:43:16.352Z,4.63
2023-05-20T14:45:46.576Z,4.80
2023-05-20T14:48:13.410Z,4.53
2023-05-20T14:50:40.179Z,4.20
2023-05-20T14:53:06.968Z,4.93
2023-05-20T14:55:33.682Z,4.73
2023-05-20T14:58:00.645Z,4.63
2023-05-20T15:00:27.350Z,5.00
2023-05-20T15:02:54.337Z,4.60
2023-05-20T15:05:21.392Z,5.10
2023-05-20T15:07:48.144Z,4.97
2023-05-20T15:10:14.846Z,17.20
2023-05-20T15:12:41.573Z,5.40
2023-05-20T15:15:09.814Z,5.30
2023-05-20T15:17:36.586Z,5.17
2023-05-20T15:20:04.089Z,4.70
2023-05-20T15:22:30.878Z,5.47
2023-05-20T15:29:09.713Z,4.53
2023-05-20T15:31:36.449Z,4.70
2023-05-20T15:34:03.269Z,4.97
2023-05-20T15:36:31.406Z,4.37
2023-05-20T15:38:58.326Z,4.57
2023-05-20T15:41:25.931Z,4.90
2023-05-20T15:43:52.657Z,4.33
2023-05-20T15:46:19.590Z,4.60
2023-05-20T15:48:46.297Z,4.67
2023-05-20T15:51:14.464Z,4.97
2023-05-20T15:53:41.298Z,5.47
2023-05-20T15:56:08.793Z,5.10
2023-05-20T15:58:35.498Z,5.00
2023-05-20T16:01:02.248Z,5.07
2023-05-20T16:03:29.671Z,4.97
2023-05-20T16:05:56.535Z,5.20
2023-05-20T16:08:23.869Z,5.17
2023-05-20T16:10:51.261Z,5.27
2023-05-20T16:13:17.954Z,4.77
2023-05-20T16:15:44.714Z,5.37
2023-05-20T16:18:11.560Z,6.23
2023-05-20T16:20:38.430Z,5.40
2023-05-20T16:23:05.276Z,5.27
2023-05-20T16:25:31.968Z,4.83
2023-05-20T16:28:00.892Z,5.37
2023-05-20T16:30:27.713Z,5.33
2023-05-20T16:32:54.525Z,5.30
2023-05-20T16:35:21.684Z,4.50
2023-05-20T16:37:48.831Z,5.47
2023-05-20T16:40:15.635Z,5.30
2023-05-20T16:42:44.106Z,4.83
2023-05-20T16:45:11.324Z,5.70
2023-05-20T16:47:38.225Z,5.23
2023-05-20T16:50:05.422Z,5.30
2023-05-20T16:52:34.610Z,5.97
2023-05-20T16:55:04.673Z,5.97
2023-05-20T16:57:32.555Z,5.63
2023-05-20T16:59:59.425Z,5.47
2023-05-20T17:02:26.491Z,5.83
2023-05-20T17:04:53.248Z,5.60
2023-05-20T17:07:20.024Z,5.33
2023-05-20T17:09:46.712Z,4.93
2023-05-20T17:12:13.510Z,5.10
2023-05-20T17:14:40.342Z,5.40
2023-05-20T17:17:09.231Z,5.07
2023-05-20T17:19:36.478Z,5.20
2023-05-20T17:22:03.259Z,5.90
2023-05-20T17:24:30.002Z,5.43
2023-05-20T17:26:56.747Z,5.50
2023-05-20T17:29:23.533Z,4.73
2023-05-20T17:31:50.426Z,5.77
2023-05-20T17:34:17.178Z,5.47
2023-05-20T17:36:43.910Z,5.27
2023-05-20T17:39:10.917Z,5.37
2023-05-20T17:41:37.734Z,5.40
2023-05-20T17:44:04.766Z,6.00
2023-05-20T17:46:31.762Z,5.37
2023-05-20T17:48:58.551Z,9.43
2023-05-20T17:51:25.464Z,5.87
2023-05-20T17:53:52.244Z,5.47
2023-05-20T17:56:18.948Z,5.87
2023-05-20T17:58:46.904Z,5.57
2023-05-20T18:01:14.966Z,5.50
2023-05-20T18:03:41.830Z,5.37
2023-05-20T18:06:08.752Z,5.77
2023-05-20T18:08:35.560Z,5.30
2023-05-20T18:11:02.312Z,6.00
2023-05-20T18:13:29.090Z,5.37
2023-05-20T18:15:55.879Z,5.80
2023-05-20T18:18:22.632Z,5.90
2023-05-20T18:20:49.331Z,5.90
2023-05-20T18:23:16.067Z,5.43
2023-05-20T18:25:43.011Z,5.93
2023-05-20T18:28:11.097Z,6.53
2023-05-20T18:30:37.910Z,5.40
2023-05-20T18:33:04.693Z,5.63
2023-05-20T18:35:31.460Z,8.00
2023-05-20T18:37:58.130Z,6.37
2023-05-20T18:40:25.230Z,5.97
2023-05-20T18:42:51.929Z,6.27
2023-05-20T18:45:19.497Z,5.90
2023-05-20T18:47:46.419Z,6.40
2023-05-20T18:50:13.129Z,5.67
2023-05-20T18:52:39.853Z,6.00
2023-05-20T18:55:07.057Z,6.57
2023-05-20T18:57:33.766Z,6.10
2023-05-20T19:00:02.325Z,6.00
2023-05-20T19:02:29.032Z,6.30
2023-05-20T19:04:55.966Z,6.23
2023-05-20T19:07:23.461Z,6.40
2023-05-20T19:09:51.904Z,6.57
2023-05-20T19:12:18.641Z,5.80
2023-05-20T19:14:46.456Z,6.30
2023-05-20T19:17:13.759Z,6.50
2023-05-20T19:19:40.437Z,6.00
2023-05-20T19:22:07.127Z,6.03
2023-05-20T19:24:34.596Z,6.33
2023-05-20T19:27:02.676Z,6.53
2023-05-20T19:29:29.383Z,6.17
2023-05-20T19:31:56.610Z,6.83
2023-05-20T19:34:24.063Z,6.30
2023-05-20T19:36:51.065Z,6.00
2023-05-20T19:39:17.894Z,6.17
2023-05-20T19:41:44.643Z,6.57
2023-05-20T19:44:11.815Z,7.07
2023-05-20T19:46:38.706Z,6.30
2023-05-20T19:49:06.144Z,6.13
2023-05-20T19:51:32.911Z,6.53
2023-05-20T19:53:59.626Z,5.73
2023-05-20T19:56:26.386Z,6.17
2023-05-20T19:58:53.092Z,5.23
2023-05-20T20:01:20.315Z,6.00
2023-05-20T20:03:47.090Z,6.00
2023-05-20T20:06:13.871Z,6.07
2023-05-20T20:08:41.611Z,5.63
2023-05-20T20:11:09.062Z,6.53
2023-05-20T20:13:35.962Z,7.03
2023-05-20T20:16:02.904Z,15.13
2023-05-20T20:18:29.709Z,6.33
2023-05-20T20:20:59.602Z,6.23
2023-05-20T20:23:27.144Z,6.80
2023-05-20T20:25:53.864Z,6.03
2023-05-20T20:28:21.503Z,6.73
2023-05-20T20:30:48.274Z,5.97
2023-05-20T20:33:15.039Z,6.03
2023-05-20T20:35:41.951Z,5.83
2023-05-20T20:38:09.650Z,6.03
2023-05-20T20:40:42.311Z,5.57
2023-05-20T20:43:10.985Z,6.70
2023-05-20T20:45:37.797Z,6.33
2023-05-20T20:48:07.649Z,6.03
2023-05-20T20:50:35.727Z,6.37
2023-05-20T20:53:02.738Z,6.20
2023-05-20T20:55:30.483Z,6.27
2023-05-20T20:57:58.158Z,6.40
2023-05-20T21:00:26.365Z,6.37
2023-05-20T21:02:53.137Z,6.63
2023-05-20T21:05:21.357Z,6.30
2023-05-20T21:07:50.137Z,6.73
2023-05-20T21:10:17.689Z,6.20
2023-05-20T21:12:44.567Z,7.10
2023-05-20T21:15:12.518Z,7.10
2023-05-20T21:17:39.333Z,6.87
2023-05-20T21:20:06.901Z,6.60
2023-05-20T21:22:33.763Z,6.50
2023-05-20T21:25:00.446Z,7.07
2023-05-20T21:27:27.140Z,6.50
2023-05-20T21:29:53.851Z,7.40
2023-05-20T21:32:20.554Z,7.20
2023-05-20T21:34:47.341Z,6.63
2023-05-20T21:37:14.020Z,6.40
2023-05-20T21:39:41.704Z,7.27
2023-05-20T21:42:08.392Z,6.47
2023-05-20T21:44:35.118Z,6.73
2023-05-20T21:47:01.863Z,7.23
2023-05-20T21:49:28.579Z,6.47
2023-05-20T21:51:55.262Z,7.00
2023-05-20T21:54:21.962Z,8.00
2023-05-20T21:56:48.680Z,8.77
2023-05-20T21:59:15.508Z,6.90
2023-05-20T22:01:42.281Z,7.23
2023-05-20T22:04:09.335Z,7.50
2023-05-20T22:06:36.160Z,7.07
2023-05-20T22:09:03.474Z,7.13
2023-05-20T22:11:30.443Z,7.43
2023-05-20T22:13:57.265Z,8.10
2023-05-20T22:16:24.702Z,8.70
2023-05-20T22:18:53.815Z,8.13
2023-05-20T22:21:21.464Z,8.73
2023-05-20T22:23:48.341Z,7.80
2023-05-20T22:26:15.145Z,8.80
2023-05-20T22:28:42.180Z,7.97
2023-05-20T22:31:08.906Z,7.53
2023-05-20T22:33:36.884Z,10.53
2023-05-20T22:36:03.704Z,9.60
2023-05-20T22:38:30.809Z,7.87
2023-05-20T22:40:57.638Z,8.17
2023-05-20T22:43:24.649Z,9.07
2023-05-20T22:45:51.485Z,8.80
2023-05-20T22:48:22.750Z,8.73
2023-05-20T22:50:50.699Z,9.30
2023-05-20T22:53:17.477Z,8.23
2023-05-20T22:55:44.296Z,8.10
2023-05-20T22:58:12.218Z,9.77
2023-05-20T23:00:39.315Z,8.20
2023-05-20T23:03:06.318Z,8.77
2023-05-20T23:05:33.131Z,8.93
2023-05-20T23:07:59.896Z,8.17
2023-05-20T23:10:26.609Z,8.77
2023-05-20T23:12:53.317Z,9.67
2023-05-20T23:15:20.022Z,9.17
2023-05-20T23:17:46.831Z,9.37
2023-05-20T23:20:14.430Z,8.90
2023-05-20T23:22:41.270Z,8.73
2023-05-20T23:25:08.506Z,8.60
2023-05-20T23:27:35.249Z,8.67
2023-05-20T23:30:02.026Z,8.77
2023-05-20T23:32:28.828Z,9.67
2023-05-20T23:34:55.592Z,9.10
2023-05-20T23:37:22.429Z,9.00
2023-05-20T23:39:49.138Z,9.27
2023-05-20T23:42:16.175Z,9.50
2023-05-20T23:44:42.852Z,10.00
2023-05-20T23:47:09.680Z,9.93
2023-05-20T23:49:37.108Z,9.40
2023-05-20T23:52:04.068Z,10.53
2023-05-20T23:54:34.909Z,13.53
2023-05-20T23:57:01.680Z,15.50
2023-05-20T23:59:28.452Z,15.17
